Time;durP1;ratioP1;P1;durP2;ratioP2;P2;SDS_P1;SDS_P2;PMS_P1;PMS_P2;Temp;Humidity;BMP_temperature;BMP_pressure;BME280_temperature;BME280_humidity;BME280_pressure;Samples;Min_cycle;Max_cycle;Signal;HPM_P1;HPM_P2
2021/09/21 00:00:21;;;;;;;0.98;0.50;;;;;;;9.68;100.00;98912.98;1713995;82;21015;-72
2021/09/21 00:02:52;;;;;;;0.70;0.40;;;;;;;9.65;100.00;98916.51;1700177;82;20948;-71
2021/09/21 00:05:24;;;;;;;0.30;0.30;;;;;;;9.62;100.00;98915.21;1722538;82;21508;-72
2021/09/21 00:07:58;;;;;;;1.22;0.60;;;;;;;9.61;100.00;98921.80;1736197;82;21587;-72
2021/09/21 00:10:27;;;;;;;0.50;0.40;;;;;;;9.58;100.00;98925.33;1721961;82;21088;-72
2021/09/21 00:12:59;;;;;;;1.30;0.47;;;;;;;9.54;100.00;98927.99;1703170;83;21463;-73
2021/09/21 00:15:33;;;;;;;0.40;0.40;;;;;;;9.53;100.00;98924.92;1739026;80;21411;-72
2021/09/21 00:18:06;;;;;;;0.72;0.50;;;;;;;9.54;100.00;98918.33;1740793;80;21034;-72
2021/09/21 00:20:37;;;;;;;0.45;0.42;;;;;;;9.54;100.00;98924.05;1769894;79;21026;-72
2021/09/21 00:23:06;;;;;;;0.30;0.30;;;;;;;9.49;100.00;98921.88;1796969;79;21753;-72
2021/09/21 00:25:38;;;;;;;0.75;0.40;;;;;;;9.46;100.00;98927.59;1785629;78;21486;-73
2021/09/21 00:28:07;;;;;;;0.40;0.40;;;;;;;9.41;100.00;98926.70;1777832;79;21447;-72
2021/09/21 00:30:46;;;;;;;3.62;0.42;;;;;;;9.37;100.00;98928.92;1773201;79;21497;-72
2021/09/21 00:33:16;;;;;;;0.72;0.42;;;;;;;9.34;100.00;98930.25;1757963;79;21488;-72
2021/09/21 00:35:42;;;;;;;0.55;0.40;;;;;;;9.32;100.00;98933.34;1773786;79;21971;-72
2021/09/21 00:38:14;;;;;;;0.60;0.40;;;;;;;9.31;100.00;98935.53;1762553;80;21471;-72
2021/09/21 00:40:45;;;;;;;0.60;0.40;;;;;;;9.32;100.00;98930.70;1731985;80;21065;-72
2021/09/21 00:43:15;;;;;;;1.57;0.50;;;;;;;9.35;100.00;98932.45;1758323;79;20883;-72
2021/09/21 00:45:45;;;;;;;0.65;0.50;;;;;;;9.34;100.00;98934.64;1731301;81;21427;-72
2021/09/21 00:48:17;;;;;;;0.60;0.50;;;;;;;9.29;100.00;98928.09;1756874;79;21446;-72
2021/09/21 00:50:46;;;;;;;0.60;0.50;;;;;;;9.29;100.00;98932.48;1768328;80;20931;-72
2021/09/21 00:53:17;;;;;;;1.10;0.50;;;;;;;9.26;100.00;98936.00;1767700;79;22457;-72
2021/09/21 00:55:49;;;;;;;0.40;0.40;;;;;;;9.24;100.00;98931.63;1764697;79;21431;-71
2021/09/21 00:58:20;;;;;;;0.80;0.60;;;;;;;9.25;100.00;98936.88;1714394;82;21000;-71
2021/09/21 01:00:54;;;;;;;0.75;0.50;;;;;;;9.30;100.00;98936.41;1727732;80;20890;-72
2021/09/21 01:03:24;;;;;;;1.57;0.37;;;;;;;9.30;100.00;98936.41;1740047;80;20948;-72
2021/09/21 01:05:56;;;;;;;0.72;0.60;;;;;;;9.28;100.00;98935.98;1760357;79;21462;-71
2021/09/21 01:08:29;;;;;;;0.42;0.37;;;;;;;9.27;100.00;98935.55;1751289;79;21497;-71
2021/09/21 01:10:58;;;;;;;0.40;0.40;;;;;;;9.27;100.00;98942.14;1771944;78;20940;-71
2021/09/21 01:13:40;;;;;;;0.75;0.40;;;;;;;9.26;100.00;98940.39;1777003;79;21395;-71
2021/09/21 01:16:13;;;;;;;0.55;0.30;;;;;;;9.23;100.00;98937.77;1759626;78;21477;-72
2021/09/21 01:18:44;;;;;;;0.30;0.30;;;;;;;9.22;100.00;98941.28;1784748;79;21598;-71
2021/09/21 01:21:18;;;;;;;1.80;0.40;;;;;;;9.19;100.00;98935.59;1771281;79;21509;-71
2021/09/21 01:23:51;;;;;;;0.30;0.30;;;;;;;9.21;100.00;98936.45;1761734;79;21442;-71
2021/09/21 01:26:23;;;;;;;0.60;0.30;;;;;;;9.21;100.00;98935.58;1714316;80;21433;-72
2021/09/21 01:28:55;;;;;;;0.62;0.20;;;;;;;9.21;100.00;98943.48;1711556;82;21793;-71
2021/09/21 01:31:30;;;;;;;0.35;0.35;;;;;;;9.17;100.00;98938.67;1711144;83;20959;-72
2021/09/21 01:33:59;;;;;;;0.30;0.30;;;;;;;9.15;100.00;98944.38;1716308;82;20852;-71
2021/09/21 01:36:30;;;;;;;0.72;0.40;;;;;;;9.12;100.00;98945.70;1725877;81;20957;-71
2021/09/21 01:38:59;;;;;;;1.15;0.30;;;;;;;9.10;100.00;98939.13;1715540;82;21965;-71
2021/09/21 01:41:40;;;;;;;0.23;0.23;;;;;;;9.10;100.00;98945.71;1769455;79;21412;-69
2021/09/21 01:44:22;;;;;;;0.20;0.20;;;;;;;9.15;100.00;98942.63;1773881;79;21572;-70
2021/09/21 01:47:07;;;;;;;1.92;0.40;;;;;;;9.20;100.00;98946.98;1753668;79;21423;-71
2021/09/21 01:49:51;;;;;;;0.30;0.30;;;;;;;9.21;100.00;98948.30;1707785;82;20976;-69
2021/09/21 02:00:46;;;;;;;0.33;0.33;;;;;;;9.19;100.00;98950.06;1727921;80;26405;-69
2021/09/21 02:03:20;;;;;;;0.50;0.40;;;;;;;9.20;100.00;98946.98;1723442;82;21557;-69
2021/09/21 02:05:55;;;;;;;0.30;0.30;;;;;;;9.22;100.00;98954.00;1772801;79;22618;-69
2021/09/21 02:08:27;;;;;;;0.47;0.30;;;;;;;9.21;100.00;98953.56;1713139;82;21122;-69
2021/09/21 02:11:01;;;;;;;0.60;0.30;;;;;;;9.20;100.00;98953.12;1699880;82;21457;-64
2021/09/21 02:13:36;;;;;;;0.30;0.30;;;;;;;9.19;100.00;98953.13;1708870;82;21482;-71
2021/09/21 02:16:08;;;;;;;0.85;0.40;;;;;;;9.18;100.00;98959.28;1687526;82;20951;-70
2021/09/21 02:18:43;;;;;;;0.73;0.40;;;;;;;9.17;100.00;98959.72;1698799;83;21526;-70
2021/09/21 02:21:15;;;;;;;1.17;0.47;;;;;;;9.14;100.00;98953.16;1704758;81;21531;-71
2021/09/21 02:23:55;;;;;;;0.80;0.40;;;;;;;9.14;100.00;98954.47;1708066;83;21414;-70
2021/09/21 02:26:23;;;;;;;0.70;0.70;;;;;;;9.15;100.00;98956.22;1709671;81;21553;-71
2021/09/21 02:29:00;;;;;;;0.85;0.72;;;;;;;9.10;100.00;98951.41;1711356;82;21522;-66
2021/09/21 02:31:30;;;;;;;1.00;0.60;;;;;;;9.04;100.00;98955.38;1708407;82;21433;-70
2021/09/21 02:34:00;;;;;;;0.70;0.70;;;;;;;8.98;100.00;98952.73;1710188;82;21085;-73
2021/09/21 02:36:42;;;;;;;1.95;0.70;;;;;;;8.94;100.00;98958.89;1710634;82;20939;-73
2021/09/21 02:39:12;;;;;;;0.90;0.80;;;;;;;8.88;100.00;98969.42;1716469;81;27057;-73
2021/09/21 02:41:44;;;;;;;1.05;0.80;;;;;;;8.85;100.00;98970.31;1712315;82;21434;-73
2021/09/21 02:44:17;;;;;;;0.88;0.70;;;;;;;8.82;100.00;98969.88;1705068;82;21470;-72
2021/09/21 02:47:03;;;;;;;0.90;0.70;;;;;;;8.86;100.00;98973.81;1711652;82;21474;-72
2021/09/21 02:49:34;;;;;;;1.20;1.02;;;;;;;8.86;100.00;98976.45;1710172;82;21415;-73
2021/09/21 02:52:07;;;;;;;0.80;0.80;;;;;;;8.83;100.00;98979.52;1684466;82;21031;-72
2021/09/21 02:54:56;;;;;;;;;;;;;;;;;;;;;
2021/09/21 02:57:40;;;;;;;3.60;0.90;;;;;;;8.76;100.00;98988.30;1771734;79;20905;-74
2021/09/21 03:00:11;;;;;;;1.00;0.90;;;;;;;8.71;100.00;98986.11;1761418;79;21459;-74
2021/09/21 03:02:43;;;;;;;0.80;0.80;;;;;;;8.67;100.00;98988.75;1750779;79;21437;-71
2021/09/21 03:05:38;;;;;;;0.90;0.88;;;;;;;8.66;100.00;98986.56;1785300;79;20935;-72
2021/09/21 03:08:17;;;;;;;2.12;0.80;;;;;;;8.69;100.00;98990.94;1751039;80;21398;-71
2021/09/21 03:19:06;;;;;;;7.42;1.20;;;;;;;8.66;100.00;98998.39;1695749;82;21412;-69
2021/09/21 03:21:38;;;;;;;1.00;0.77;;;;;;;8.66;100.00;98995.77;1734164;81;21454;-69
2021/09/21 03:24:13;;;;;;;1.50;0.85;;;;;;;8.65;100.00;98997.95;1722284;82;21129;-66
2021/09/21 03:26:44;;;;;;;1.32;0.88;;;;;;;8.65;100.00;98997.08;1768454;79;21395;-70
2021/09/21 03:29:13;;;;;;;1.10;1.00;;;;;;;8.69;100.00;99002.33;1757353;80;20886;-69
2021/09/21 03:31:42;;;;;;;1.20;0.95;;;;;;;8.73;100.00;99008.03;1773521;79;21005;-71
2021/09/21 03:34:11;;;;;;;1.32;0.98;;;;;;;8.74;100.00;99004.52;1767634;79;20936;-70
2021/09/21 03:36:40;;;;;;;2.55;1.10;;;;;;;8.77;100.00;99010.21;1806276;79;21149;-69
2021/09/21 03:39:08;;;;;;;2.17;1.20;;;;;;;8.80;100.00;99018.09;1781569;79;21478;-68
2021/09/21 03:41:38;;;;;;;1.80;1.10;;;;;;;8.76;100.00;99005.39;1754869;80;21557;-73
2021/09/21 03:44:05;;;;;;;1.87;1.00;;;;;;;8.78;100.00;99011.53;1770647;79;20892;-72
2021/09/21 03:46:35;;;;;;;2.90;1.00;;;;;;;8.80;100.00;99004.95;1771503;79;20920;-73
2021/09/21 03:49:04;;;;;;;0.93;0.85;;;;;;;8.84;100.00;99006.70;1789226;79;20871;-73
2021/09/21 03:51:34;;;;;;;1.10;1.00;;;;;;;8.88;100.00;99013.70;1800627;78;21010;-73
2021/09/21 03:54:04;;;;;;;1.02;0.80;;;;;;;8.89;100.00;99013.27;1776866;79;21366;-72
2021/09/21 03:56:33;;;;;;;0.88;0.85;;;;;;;8.90;100.00;99015.02;1796785;78;21382;-72
2021/09/21 03:59:13;;;;;;;1.05;1.02;;;;;;;8.87;100.00;99011.95;1808327;79;20939;-73
2021/09/21 04:01:46;;;;;;;1.15;0.93;;;;;;;8.88;100.00;99022.91;1776204;79;21108;-73
2021/09/21 04:04:17;;;;;;;1.62;1.10;;;;;;;8.87;100.00;99021.16;1789821;78;21392;-73
2021/09/21 04:06:51;;;;;;;1.15;0.80;;;;;;;8.86;100.00;99020.72;1788402;79;20880;-72
2021/09/21 04:09:21;;;;;;;2.15;0.82;;;;;;;8.87;100.00;99021.59;1791610;79;20852;-73
2021/09/21 04:11:51;;;;;;;0.80;0.80;;;;;;;8.92;100.00;99018.52;1807612;78;21514;-73
2021/09/21 04:14:21;;;;;;;1.12;0.95;;;;;;;8.95;100.00;99017.20;1781699;79;20868;-73
2021/09/21 04:16:53;;;;;;;1.12;0.90;;;;;;;8.97;100.00;99019.38;1796225;78;21348;-73
2021/09/21 04:19:23;;;;;;;0.70;0.70;;;;;;;8.97;100.00;99018.95;1777829;78;20911;-73
2021/09/21 04:21:53;;;;;;;1.07;0.90;;;;;;;8.97;100.00;99025.52;1784417;79;20978;-73
2021/09/21 04:24:22;;;;;;;1.05;0.85;;;;;;;8.95;100.00;99021.14;1786432;79;20934;-73
2021/09/21 04:26:51;;;;;;;1.75;0.90;;;;;;;8.94;100.00;99022.90;1807452;78;21158;-73
2021/09/21 04:29:21;;;;;;;2.30;0.98;;;;;;;8.93;100.00;99022.46;1794729;78;21411;-73
2021/09/21 04:31:55;;;;;;;2.00;1.10;;;;;;;8.91;100.00;99022.91;1791744;79;21275;-72
2021/09/21 04:34:25;;;;;;;1.02;0.80;;;;;;;8.90;100.00;99022.47;1805903;78;21026;-73
2021/09/21 04:36:54;;;;;;;1.42;1.10;;;;;;;8.93;100.00;99028.16;1782581;79;21506;-72
2021/09/21 04:39:23;;;;;;;3.05;2.55;;;;;;;8.96;100.00;99028.16;1801366;78;21493;-73
2021/09/21 04:41:54;;;;;;;9.35;6.85;;;;;;;8.98;100.00;99027.27;1804357;79;20880;-72
2021/09/21 04:44:22;;;;;;;4.85;4.22;;;;;;;8.98;100.00;99032.98;1793964;79;20880;-73
2021/09/21 04:46:53;;;;;;;3.83;2.70;;;;;;;8.97;100.00;99033.41;1791455;79;20920;-73
2021/09/21 04:49:21;;;;;;;4.05;3.00;;;;;;;8.97;100.00;99038.67;1783609;78;21010;-73
2021/09/21 04:51:49;;;;;;;3.85;2.80;;;;;;;8.98;100.00;99032.98;1802277;78;21787;-73
2021/09/21 04:54:17;;;;;;;5.97;4.10;;;;;;;8.98;100.00;99034.30;1795061;78;20899;-73
2021/09/21 04:56:46;;;;;;;2.58;2.00;;;;;;;9.04;100.00;99036.51;1790609;79;20940;-73
2021/09/21 04:59:16;;;;;;;2.00;1.80;;;;;;;9.04;100.00;99036.51;1799260;78;21420;-74
2021/09/21 05:01:49;;;;;;;1.80;1.52;;;;;;;9.00;100.00;99036.08;1802843;78;20900;-72
2021/09/21 05:04:17;;;;;;;2.12;1.85;;;;;;;8.98;100.00;99041.74;1771556;79;21101;-72
2021/09/21 05:06:53;;;;;;;2.35;2.00;;;;;;;8.98;100.00;99040.43;1790347;78;20911;-72
2021/09/21 05:09:21;;;;;;;2.55;1.80;;;;;;;8.98;100.00;99042.19;1803623;79;20899;-73
2021/09/21 05:11:54;;;;;;;2.35;1.55;;;;;;;8.97;100.00;99042.63;1791897;79;20848;-71
2021/09/21 05:14:23;;;;;;;2.35;1.60;;;;;;;9.00;100.00;99042.66;1805549;79;21442;-72
2021/09/21 05:16:57;;;;;;;2.63;1.60;;;;;;;8.98;100.00;99044.38;1784910;78;21450;-72
2021/09/21 05:19:26;;;;;;;1.95;1.30;;;;;;;8.96;100.00;99047.89;1789290;79;20883;-72
2021/09/21 05:21:56;;;;;;;1.20;1.10;;;;;;;8.94;100.00;99047.02;1795489;79;20919;-72
2021/09/21 05:24:25;;;;;;;1.60;1.07;;;;;;;8.91;100.00;99053.16;1794670;79;20950;-73
2021/09/21 05:26:54;;;;;;;1.20;1.00;;;;;;;8.89;100.00;99047.02;1771366;79;20952;-73
2021/09/21 05:29:29;;;;;;;1.22;1.00;;;;;;;8.89;100.00;99052.28;1788679;79;21403;-71
2021/09/21 05:32:01;;;;;;;1.10;1.00;;;;;;;8.89;100.00;99058.86;1783560;79;21454;-72
2021/09/21 05:34:30;;;;;;;1.35;1.25;;;;;;;8.93;100.00;99050.09;1782056;79;21153;-72
2021/09/21 05:37:01;;;;;;;3.00;1.30;;;;;;;8.95;100.00;99056.22;1799830;79;21466;-71
2021/09/21 05:39:28;;;;;;;4.90;3.62;;;;;;;8.96;100.00;99046.58;1807413;79;20919;-73
2021/09/21 05:41:58;;;;;;;2.40;2.15;;;;;;;8.97;100.00;99047.88;1786664;79;20867;-72
2021/09/21 05:44:28;;;;;;;1.95;1.70;;;;;;;8.99;100.00;99051.86;1771627;79;21407;-73
2021/09/21 05:46:58;;;;;;;1.95;1.40;;;;;;;8.98;100.00;99050.95;1794893;79;20927;-72
2021/09/21 05:49:26;;;;;;;1.72;1.57;;;;;;;8.98;100.00;99047.45;1782799;79;20907;-73
2021/09/21 05:51:54;;;;;;;4.53;1.60;;;;;;;8.97;100.00;99053.15;1807451;79;20955;-73
2021/09/21 05:54:23;;;;;;;1.85;1.40;;;;;;;8.98;100.00;99054.02;1801071;79;21764;-71
2021/09/21 05:56:50;;;;;;;1.77;1.32;;;;;;;8.96;100.00;99051.84;1795638;79;20828;-71
2021/09/21 05:59:18;;;;;;;1.75;1.15;;;;;;;8.96;100.00;99050.08;1779858;78;21455;-71
2021/09/21 06:01:48;;;;;;;1.47;1.35;;;;;;;8.99;100.00;99050.11;1801589;78;21312;-71
2021/09/21 06:04:15;;;;;;;2.90;1.20;;;;;;;9.00;100.00;99058.44;1788675;78;20927;-71
2021/09/21 06:06:43;;;;;;;3.15;1.30;;;;;;;9.00;100.00;99060.19;1801474;78;21781;-71
2021/09/21 06:09:12;;;;;;;1.75;1.40;;;;;;;9.00;100.00;99054.93;1785356;79;20907;-72
2021/09/21 06:11:40;;;;;;;1.80;1.55;;;;;;;8.99;100.00;99055.37;1777486;79;21475;-73
2021/09/21 06:14:08;;;;;;;1.87;1.67;;;;;;;8.98;100.00;99057.97;1797260;79;21379;-73
2021/09/21 06:16:35;;;;;;;1.82;1.60;;;;;;;9.00;100.00;99057.56;1797557;79;21489;-73
2021/09/21 06:19:04;;;;;;;1.80;1.70;;;;;;;9.02;100.00;99053.17;1793279;78;20903;-71
2021/09/21 06:21:32;;;;;;;4.03;1.50;;;;;;;9.06;100.00;99061.50;1789852;78;20941;-72
2021/09/21 06:24:02;;;;;;;1.55;1.30;;;;;;;9.07;100.00;99057.55;1771549;79;20974;-72
2021/09/21 06:26:31;;;;;;;3.25;1.35;;;;;;;9.10;100.00;99061.93;1806351;79;20994;-72
2021/09/21 06:29:01;;;;;;;1.32;1.17;;;;;;;9.12;100.00;99056.23;1801737;79;21438;-72
2021/09/21 06:31:30;;;;;;;1.10;1.00;;;;;;;9.15;100.00;99065.43;1804712;79;21148;-71
2021/09/21 06:33:58;;;;;;;1.10;0.90;;;;;;;9.15;100.00;99059.73;1788607;78;20884;-73
2021/09/21 06:36:28;;;;;;;1.40;1.00;;;;;;;9.15;100.00;99060.16;1784958;79;21383;-73
2021/09/21 06:38:57;;;;;;;1.17;0.90;;;;;;;9.15;100.00;99061.05;1782847;79;20982;-72
2021/09/21 06:41:24;;;;;;;1.57;1.32;;;;;;;9.20;100.00;99064.98;1776426;79;20939;-72
2021/09/21 06:43:52;;;;;;;2.50;0.80;;;;;;;9.25;100.00;99068.92;1783784;78;21466;-71
2021/09/21 06:46:22;;;;;;;1.22;1.10;;;;;;;9.28;100.00;99076.80;1811779;78;21459;-72
2021/09/21 06:48:49;;;;;;;2.27;1.27;;;;;;;9.29;100.00;99071.54;1787179;79;20930;-71
2021/09/21 06:51:19;;;;;;;2.00;1.00;;;;;;;9.27;100.00;99072.42;1771522;79;20958;-71
2021/09/21 06:53:47;;;;;;;1.25;0.80;;;;;;;9.25;100.00;99075.06;1771347;79;20959;-71
2021/09/21 06:56:15;;;;;;;1.52;0.95;;;;;;;9.25;100.00;99069.80;1783034;79;21500;-71
2021/09/21 06:58:42;;;;;;;0.93;0.70;;;;;;;9.28;100.00;99075.05;1795411;78;21007;-71
2021/09/21 07:01:12;;;;;;;2.77;1.10;;;;;;;9.30;100.00;99071.97;1771725;79;20895;-71
2021/09/21 07:03:41;;;;;;;2.58;0.80;;;;;;;9.37;100.00;99074.15;1771619;79;20883;-72
2021/09/21 07:06:08;;;;;;;2.10;1.00;;;;;;;9.41;100.00;99078.53;1790585;79;20887;-71
2021/09/21 07:08:36;;;;;;;1.10;1.00;;;;;;;9.42;100.00;99080.28;1793512;79;21727;-71
2021/09/21 07:11:03;;;;;;;0.93;0.90;;;;;;;9.45;100.00;99075.00;1802110;79;20869;-72
2021/09/21 07:13:33;;;;;;;1.30;1.00;;;;;;;9.49;100.00;99078.54;1798839;79;20916;-70
2021/09/21 07:16:00;;;;;;;1.27;1.00;;;;;;;9.49;100.00;99075.91;1780531;79;20944;-71
2021/09/21 07:18:28;;;;;;;0.88;0.80;;;;;;;9.53;100.00;99082.47;1793751;79;20951;-72
2021/09/21 07:20:55;;;;;;;1.07;0.98;;;;;;;9.58;100.00;99089.05;1806958;79;21019;-72
2021/09/21 07:23:23;;;;;;;1.42;1.10;;;;;;;9.61;100.00;99079.37;1789090;79;20923;-71
2021/09/21 07:25:52;;;;;;;1.52;0.90;;;;;;;9.67;100.00;99082.42;1795471;79;20954;-71
2021/09/21 07:28:19;;;;;;;1.10;1.00;;;;;;;9.74;100.00;99078.88;1783657;79;20952;-72
2021/09/21 07:30:48;;;;;;;1.75;1.20;;;;;;;9.82;100.00;99083.68;1805522;79;20937;-72
2021/09/21 07:33:16;;;;;;;3.30;1.40;;;;;;;9.88;100.00;99078.83;1804924;79;21908;-71
2021/09/21 07:35:44;;;;;;;2.30;1.70;;;;;;;9.94;100.00;99083.66;1800219;79;20990;-72
2021/09/21 07:38:12;;;;;;;3.95;1.85;;;;;;;9.96;100.00;99079.70;1805907;79;20908;-71
2021/09/21 07:40:41;;;;;;;2.62;1.80;;;;;;;9.99;100.00;99086.27;1775456;79;20999;-71
2021/09/21 07:43:08;;;;;;;1.50;1.40;;;;;;;9.97;100.00;99084.95;1778034;79;20868;-71
2021/09/21 07:45:36;;;;;;;1.10;1.00;;;;;;;9.98;100.00;99085.39;1791075;79;21094;-71
2021/09/21 07:48:04;;;;;;;1.70;1.10;;;;;;;10.00;100.00;99095.92;1779442;79;20911;-72
2021/09/21 07:50:31;;;;;;;1.20;0.95;;;;;;;10.00;100.00;99095.92;1776845;79;21487;-71
2021/09/21 07:52:59;;;;;;;2.75;1.15;;;;;;;10.01;100.00;99089.77;1782498;79;21058;-71
2021/09/21 07:55:34;;;;;;;1.60;1.25;;;;;;;10.02;100.00;99095.48;1805546;79;20901;-72
2021/09/21 07:58:02;;;;;;;1.62;1.10;;;;;;;9.99;100.00;99102.08;1769346;81;21117;-71
2021/09/21 08:00:30;;;;;;;2.02;0.95;;;;;;;9.97;100.00;99097.26;1724941;82;20865;-71
2021/09/21 08:03:02;;;;;;;1.95;1.42;;;;;;;9.99;100.00;99091.09;1710653;82;21411;-71
2021/09/21 08:05:32;;;;;;;2.08;1.25;;;;;;;10.01;100.00;99093.73;1716182;82;21542;-71
2021/09/21 08:07:59;;;;;;;1.55;1.17;;;;;;;10.02;100.00;99088.89;1729805;82;21466;-71
2021/09/21 08:10:29;;;;;;;2.10;1.50;;;;;;;10.06;100.00;99084.03;1751554;80;21711;-73
2021/09/21 08:13:00;;;;;;;2.08;1.47;;;;;;;10.11;100.00;99086.20;1741490;80;21515;-72
2021/09/21 08:15:30;;;;;;;1.95;1.60;;;;;;;10.16;100.00;99087.50;1756335;80;20923;-73
2021/09/21 08:18:00;;;;;;;1.87;1.20;;;;;;;10.23;100.00;99085.30;1730659;82;21683;-70
2021/09/21 08:20:30;;;;;;;1.40;1.10;;;;;;;10.30;100.00;99083.92;1721454;82;21533;-72
2021/09/21 08:22:59;;;;;;;1.37;1.00;;;;;;;10.35;100.00;99080.81;1727334;82;21117;-72
2021/09/21 08:25:27;;;;;;;4.17;1.10;;;;;;;10.39;100.00;99086.95;1729484;82;20987;-73
2021/09/21 08:27:58;;;;;;;2.00;1.12;;;;;;;10.39;100.00;99085.19;1713119;82;20924;-73
2021/09/21 08:30:26;;;;;;;1.75;1.20;;;;;;;10.39;100.00;99081.23;1743267;81;20896;-73
2021/09/21 08:32:53;;;;;;;1.45;1.07;;;;;;;10.40;100.00;99086.97;1755048;81;21024;-73
2021/09/21 08:35:25;;;;;;;3.30;1.27;;;;;;;10.41;100.00;99090.48;1754209;81;20940;-73
2021/09/21 08:37:57;;;;;;;1.82;1.42;;;;;;;10.40;100.00;99091.34;1749781;81;20899;-73
2021/09/21 08:40:25;;;;;;;1.45;1.20;;;;;;;10.37;100.00;99088.28;1750406;81;20888;-73
2021/09/21 08:42:54;;;;;;;2.10;1.20;;;;;;;10.35;100.00;99097.08;1791224;79;20945;-73
2021/09/21 08:45:22;;;;;;;2.90;1.20;;;;;;;10.30;100.00;99094.92;1796526;79;21158;-73
2021/09/21 08:47:51;;;;;;;0.88;0.78;;;;;;;10.25;100.00;99090.11;1780609;79;21415;-73
2021/09/21 08:50:18;;;;;;;0.82;0.70;;;;;;;10.23;100.00;99092.76;1782534;79;20898;-73
2021/09/21 08:52:45;;;;;;;1.00;0.90;;;;;;;10.20;100.00;99090.14;1798998;79;20948;-73
2021/09/21 08:55:14;;;;;;;1.57;1.00;;;;;;;10.16;100.00;99087.50;1792113;79;20896;-72
2021/09/21 08:57:42;;;;;;;1.32;1.00;;;;;;;10.10;100.00;99087.09;1785412;79;20880;-71
2021/09/21 09:00:14;;;;;;;2.22;1.40;;;;;;;10.13;100.00;99095.42;1798555;78;21106;-72
2021/09/21 09:02:41;;;;;;;3.10;1.87;;;;;;;10.16;100.00;99093.64;1783335;79;21002;-72
2021/09/21 09:05:11;;;;;;;3.60;1.55;;;;;;;10.21;100.00;99096.28;1798800;79;21010;-72
2021/09/21 09:07:50;;;;;;;5.97;2.65;;;;;;;10.28;100.00;99099.33;1800734;78;20959;-71
2021/09/21 09:10:21;;;;;;;8.85;3.87;;;;;;;10.38;100.00;99093.11;1791705;79;20918;-73
2021/09/21 09:12:48;;;;;;;4.70;3.02;;;;;;;10.43;100.00;99090.03;1792501;79;21529;-73
2021/09/21 09:15:21;;;;;;;5.90;3.30;;;;;;;10.48;100.00;99089.55;1800599;78;20900;-72
2021/09/21 09:18:05;;;;;;;3.92;2.87;;;;;;;10.53;100.00;99084.25;1768534;79;20889;-72
2021/09/21 09:20:38;;;;;;;4.92;2.02;;;;;;;10.57;100.00;99079.38;1789205;79;20974;-73
2021/09/21 09:23:07;;;;;;;3.02;2.42;;;;;;;10.60;100.00;99080.23;1788264;79;20939;-72
2021/09/21 09:25:45;;;;;;;3.95;2.10;;;;;;;10.61;100.00;99074.52;1805424;79;21744;-73
2021/09/21 09:28:18;;;;;;;3.72;2.42;;;;;;;10.66;100.00;99076.67;1801200;78;21390;-73
2021/09/21 09:30:46;;;;;;;2.85;2.20;;;;;;;10.67;100.00;99070.07;1794153;79;20892;-73
2021/09/21 09:33:13;;;;;;;3.05;2.22;;;;;;;10.68;100.00;99076.22;1795585;78;20836;-73
2021/09/21 09:35:43;;;;;;;6.08;2.60;;;;;;;10.69;100.00;99079.29;1806285;79;20872;-73
2021/09/21 09:38:16;;;;;;;3.20;2.60;;;;;;;10.67;100.00;99088.53;1807196;78;21780;-73
2021/09/21 09:40:53;;;;;;;3.60;3.00;;;;;;;10.65;100.00;99092.07;1781733;78;20945;-73
2021/09/21 09:43:26;;;;;;;6.40;4.60;;;;;;;10.58;100.00;99085.97;1787836;78;22222;-73
2021/09/21 09:45:59;;;;;;;7.40;4.37;;;;;;;10.50;100.00;99087.78;1789052;79;20963;-72
2021/09/21 09:48:27;;;;;;;5.08;4.05;;;;;;;10.45;100.00;99089.58;1782738;79;20911;-71
2021/09/21 09:50:56;;;;;;;4.40;4.00;;;;;;;10.46;100.00;99091.33;1804872;79;21404;-72
2021/09/21 09:53:25;;;;;;;4.12;3.47;;;;;;;10.54;100.00;99096.11;1799411;79;20840;-71
2021/09/21 09:55:56;;;;;;;3.17;2.87;;;;;;;10.62;100.00;99082.42;1787386;78;21018;-71
2021/09/21 09:58:24;;;;;;;3.25;2.95;;;;;;;10.69;100.00;99081.48;1795120;78;20968;-70
2021/09/21 10:00:54;;;;;;;2.98;2.67;;;;;;;10.75;100.00;99078.37;1799353;78;20849;-71
2021/09/21 10:03:23;;;;;;;4.28;2.98;;;;;;;10.78;100.00;99077.02;1801879;79;21057;-70
2021/09/21 10:05:51;;;;;;;4.08;3.05;;;;;;;10.83;100.00;99080.05;1752351;80;20887;-71
2021/09/21 10:08:21;;;;;;;3.50;3.20;;;;;;;10.88;100.00;99086.61;1776882;79;20993;-73
2021/09/21 10:10:50;;;;;;;8.43;3.75;;;;;;;10.88;100.00;99087.93;1769774;78;20887;-70
2021/09/21 10:13:19;;;;;;;4.37;3.62;;;;;;;10.89;100.00;99096.31;1794208;78;20880;-72
2021/09/21 10:15:49;;;;;;;3.80;3.40;;;;;;;10.87;100.00;99092.33;1799777;78;20907;-72
2021/09/21 10:18:20;;;;;;;3.77;3.37;;;;;;;10.86;100.00;99098.50;1767621;79;21427;-73
2021/09/21 10:21:01;;;;;;;3.77;3.08;;;;;;;10.83;100.00;99109.52;1782853;78;21509;-72
2021/09/21 10:23:35;;;;;;;3.02;2.77;;;;;;;10.78;100.00;99103.41;1798668;78;20871;-71
2021/09/21 10:26:18;;;;;;;3.33;3.02;;;;;;;10.75;100.00;99110.03;1805471;78;21013;-71
2021/09/21 10:28:48;;;;;;;3.75;2.90;;;;;;;10.65;100.00;99115.37;1813218;78;21768;-70
2021/09/21 10:31:17;;;;;;;4.03;2.83;;;;;;;10.59;100.00;99115.86;1813426;78;20868;-71
2021/09/21 10:33:45;;;;;;;6.90;2.95;;;;;;;10.56;100.00;99123.34;1790345;79;20952;-71
2021/09/21 10:36:32;;;;;;;3.22;2.80;;;;;;;10.52;100.00;99122.94;1792996;79;20966;-71
2021/09/21 10:39:08;;;;;;;2.87;2.52;;;;;;;10.46;100.00;99125.61;1793792;79;20959;-72
2021/09/21 10:41:59;;;;;;;3.75;2.87;;;;;;;10.38;100.00;99123.43;1795874;78;21756;-72
2021/09/21 10:44:29;;;;;;;4.22;2.67;;;;;;;10.29;100.00;99129.63;1802004;79;20923;-72
2021/09/21 10:47:04;;;;;;;2.50;2.30;;;;;;;10.21;100.00;99138.47;1807058;79;20915;-72
2021/09/21 10:49:42;;;;;;;2.92;2.62;;;;;;;10.16;100.00;99139.77;1808143;79;21011;-72
2021/09/21 10:52:13;;;;;;;2.95;2.30;;;;;;;10.13;100.00;99148.14;1785006;78;21451;-71
2021/09/21 10:54:46;;;;;;;2.60;2.40;;;;;;;10.09;100.00;99141.56;1778193;78;21096;-71
2021/09/21 10:57:31;;;;;;;2.47;2.10;;;;;;;10.10;100.00;99145.08;1787480;78;21019;-72
2021/09/21 11:00:09;;;;;;;2.72;2.00;;;;;;;10.08;100.00;99151.67;1805969;78;21495;-72
2021/09/21 11:02:41;;;;;;;3.58;2.55;;;;;;;10.07;100.00;99158.27;1785102;78;21457;-72
2021/09/21 11:05:16;;;;;;;3.45;2.52;;;;;;;10.06;100.00;99159.15;1782285;79;20959;-72
2021/09/21 11:08:03;;;;;;;3.02;2.50;;;;;;;10.02;100.00;99156.09;1774856;78;20859;-72
2021/09/21 11:10:35;;;;;;;2.67;2.40;;;;;;;10.00;100.00;99157.41;1791717;79;20920;-71
2021/09/21 11:13:16;;;;;;;2.30;2.02;;;;;;;10.01;100.00;99155.21;1798945;79;20868;-72
2021/09/21 11:15:46;;;;;;;2.45;2.25;;;;;;;10.00;100.00;99156.53;1791424;79;21513;-73
2021/09/21 11:18:18;;;;;;;2.40;2.20;;;;;;;10.00;100.00;99152.58;1782718;79;20993;-71
2021/09/21 11:20:56;;;;;;;3.02;2.33;;;;;;;9.98;100.00;99149.08;1806937;79;21466;-71
2021/09/21 11:23:27;;;;;;;2.50;2.10;;;;;;;9.98;100.00;99149.95;1794753;79;21430;-72
2021/09/21 11:25:58;;;;;;;2.83;2.42;;;;;;;9.97;100.00;99152.16;1791010;79;20990;-73
2021/09/21 11:28:30;;;;;;;6.03;2.58;;;;;;;9.99;100.00;99150.39;1773406;79;21454;-72
2021/09/21 11:30:59;;;;;;;2.40;2.15;;;;;;;10.01;100.00;99147.75;1777597;79;20939;-71
2021/09/21 11:33:31;;;;;;;2.60;2.30;;;;;;;10.07;100.00;99149.04;1776737;78;21409;-72
2021/09/21 11:36:10;;;;;;;3.10;2.60;;;;;;;10.16;100.00;99146.36;1790833;79;20829;-72
2021/09/21 11:38:41;;;;;;;2.75;2.40;;;;;;;10.23;100.00;99144.61;1803983;79;21570;-71
2021/09/21 11:41:10;;;;;;;2.90;2.60;;;;;;;10.24;100.00;99150.31;1795977;79;20964;-72
2021/09/21 11:43:39;;;;;;;5.80;2.80;;;;;;;10.24;100.00;99149.88;1782861;79;20943;-67
2021/09/21 11:46:07;;;;;;;3.42;3.02;;;;;;;10.22;100.00;99147.69;1793940;79;21380;-69
2021/09/21 11:48:34;;;;;;;2.70;2.50;;;;;;;10.19;100.00;99153.38;1804573;78;21412;-69
2021/09/21 11:51:03;;;;;;;2.52;2.33;;;;;;;10.17;100.00;99149.43;1802989;78;20833;-70
2021/09/21 11:53:31;;;;;;;2.87;2.55;;;;;;;10.20;100.00;99146.81;1776899;79;21076;-69
2021/09/21 11:55:59;;;;;;;2.92;2.62;;;;;;;10.28;100.00;99148.09;1771795;79;20980;-69
2021/09/21 11:58:31;;;;;;;2.90;2.60;;;;;;;10.32;100.00;99153.34;1807619;78;21084;-69
2021/09/21 12:01:05;;;;;;;2.95;2.65;;;;;;;10.32;100.00;99162.58;1788439;79;24191;-69
2021/09/21 12:03:34;;;;;;;3.33;2.92;;;;;;;10.31;100.00;99155.55;1775982;79;20880;-68
2021/09/21 12:06:03;;;;;;;4.62;3.40;;;;;;;10.31;100.00;99150.72;1789534;79;20998;-68